Time;durP1;ratioP1;P1;durP2;ratioP2;P2;SDS_P1;SDS_P2;PMS_P1;PMS_P2;Temp;Humidity;BMP_temperature;BMP_pressure;BME280_temperature;BME280_humidity;BME280_pressure;Samples;Min_cycle;Max_cycle;Signal;HPM_P1;HPM_P2
2021/07/22 00:01:35;;;;;;;11.83;10.63;;;;;;;22.79;100.00;99199.23;1725122;83;21196;-67
2021/07/22 00:04:02;;;;;;;14.20;12.00;;;;;;;22.79;100.00;99193.37;1724827;83;21055;-66
2021/07/22 00:06:28;;;;;;;12.27;11.03;;;;;;;22.73;100.00;99187.09;1725046;83;21322;-66
2021/07/22 00:08:55;;;;;;;13.73;11.13;;;;;;;22.54;100.00;99190.57;1724691;83;21588;-61
2021/07/22 00:11:21;;;;;;;12.03;10.70;;;;;;;22.49;100.00;99176.02;1725154;82;22623;-61
2021/07/22 00:13:47;;;;;;;10.97;9.97;;;;;;;22.70;100.00;99169.09;1725233;82;21131;-61
2021/07/22 00:16:16;;;;;;;12.00;10.23;;;;;;;22.72;100.00;99181.53;1724788;83;20953;-59
2021/07/22 00:18:43;;;;;;;12.83;11.13;;;;;;;22.63;100.00;99187.26;1724796;83;21012;-63
2021/07/22 00:21:10;;;;;;;17.47;11.97;;;;;;;22.65;100.00;99194.38;1725211;83;21496;-59
2021/07/22 00:23:36;;;;;;;13.83;11.93;;;;;;;22.59;100.00;99185.72;1724940;83;21009;-59
2021/07/22 00:26:04;;;;;;;12.40;10.73;;;;;;;22.65;100.00;99187.20;1724722;83;21133;-64
2021/07/22 00:28:32;;;;;;;13.47;12.10;;;;;;;22.56;100.00;99189.73;1725266;82;21373;-59
2021/07/22 00:30:59;;;;;;;13.23;11.60;;;;;;;22.48;100.00;99197.02;1724514;83;21053;-63
2021/07/22 00:33:26;;;;;;;11.07;9.97;;;;;;;22.50;100.00;99204.17;1702370;83;21083;-59
2021/07/22 00:35:53;;;;;;;10.43;8.40;;;;;;;22.44;100.00;99205.85;1724867;83;21024;-59
2021/07/22 00:38:20;;;;;;;10.63;7.57;;;;;;;22.41;100.00;99205.88;1724661;83;21120;-60
2021/07/22 00:40:47;;;;;;;9.83;7.37;;;;;;;22.28;100.00;99198.64;1724869;83;21437;-58
2021/07/22 00:43:14;;;;;;;11.37;8.37;;;;;;;22.38;100.00;99191.06;1701611;83;20976;-59
2021/07/22 00:45:42;;;;;;;11.03;7.33;;;;;;;22.17;100.00;99194.53;1725416;83;21361;-59
2021/07/22 00:48:08;;;;;;;7.77;6.90;;;;;;;22.48;100.00;99195.70;1725232;83;20957;-65
2021/07/22 00:50:35;;;;;;;9.40;6.90;;;;;;;22.42;100.00;99193.39;1724960;83;21659;-59
2021/07/22 00:53:04;;;;;;;9.63;7.63;;;;;;;22.18;100.00;99196.11;1724560;83;20925;-62
2021/07/22 00:55:31;;;;;;;8.73;7.87;;;;;;;22.06;100.00;99203.13;1725002;83;21013;-59
2021/07/22 00:57:58;;;;;;;10.67;7.73;;;;;;;22.00;100.00;99198.41;1725272;83;21054;-58
2021/07/22 01:00:25;;;;;;;9.63;8.10;;;;;;;21.90;100.00;99213.14;1724257;83;20948;-59
2021/07/22 01:02:52;;;;;;;9.47;8.37;;;;;;;21.92;100.00;99219.48;1725358;83;21200;-59
2021/07/22 01:05:19;;;;;;;9.70;8.40;;;;;;;21.94;100.00;99205.41;1724852;83;21546;-59
2021/07/22 01:07:47;;;;;;;11.23;9.13;;;;;;;21.92;100.00;99204.34;1725187;83;21449;-57
2021/07/22 01:10:15;;;;;;;10.97;9.00;;;;;;;21.86;100.00;99202.84;1725169;83;20980;-62
2021/07/22 01:12:42;;;;;;;11.17;9.90;;;;;;;21.90;100.00;99210.48;1724328;82;20953;-57
2021/07/22 01:15:11;;;;;;;11.03;9.43;;;;;;;21.78;100.00;99218.03;1725201;83;22441;-58
2021/07/22 01:17:48;;;;;;;11.17;10.07;;;;;;;21.70;100.00;99221.30;1724327;83;20982;-58
2021/07/22 01:20:20;;;;;;;11.60;10.50;;;;;;;21.87;100.00;99222.98;1724895;81;21040;-58
2021/07/22 01:22:49;;;;;;;12.23;11.03;;;;;;;21.86;100.00;99225.39;1724444;83;21044;-58
2021/07/22 01:25:18;;;;;;;11.77;10.50;;;;;;;21.91;100.00;99233.28;1701796;83;20957;-59
2021/07/22 01:27:46;;;;;;;12.93;10.70;;;;;;;22.03;100.00;99228.91;1724927;83;21163;-58
2021/07/22 01:30:14;;;;;;;12.13;10.83;;;;;;;22.01;100.00;99232.36;1724841;83;20945;-58
2021/07/22 01:32:42;;;;;;;12.13;10.83;;;;;;;22.22;100.00;99227.10;1724852;83;20985;-59
2021/07/22 01:35:10;;;;;;;12.73;11.37;;;;;;;22.20;100.00;99225.28;1724752;83;21067;-60
2021/07/22 01:37:41;;;;;;;12.20;10.63;;;;;;;21.76;100.00;99226.28;1725271;83;21968;-57
2021/07/22 01:40:10;;;;;;;13.57;11.27;;;;;;;22.03;100.00;99226.25;1724963;82;21135;-62
2021/07/22 01:42:37;;;;;;;11.93;10.67;;;;;;;22.16;100.00;99224.27;1724607;83;21075;-65
2021/07/22 01:45:06;;;;;;;13.60;10.33;;;;;;;22.01;100.00;99228.38;1731305;82;22021;-61
2021/07/22 01:47:35;;;;;;;12.70;10.87;;;;;;;22.03;100.00;99222.27;1724178;83;20867;-61
2021/07/22 01:50:03;;;;;;;12.40;10.53;;;;;;;22.03;100.00;99224.92;1725038;83;21013;-60
2021/07/22 01:52:30;;;;;;;13.47;10.43;;;;;;;21.90;100.00;99234.36;1724858;83;21539;-59
2021/07/22 01:54:58;;;;;;;19.90;11.00;;;;;;;22.04;100.00;99234.45;1724857;83;20950;-63
2021/07/22 01:57:25;;;;;;;16.53;10.70;;;;;;;22.08;100.00;99238.91;1725162;83;20988;-58
2021/07/22 01:59:53;;;;;;;10.00;8.90;;;;;;;21.97;100.00;99238.80;1732818;81;21072;-58
2021/07/22 02:02:20;;;;;;;12.70;10.83;;;;;;;21.97;100.00;99245.43;1725558;83;21009;-58
2021/07/22 02:04:49;;;;;;;12.17;9.30;;;;;;;21.75;100.00;99246.47;1725197;83;21224;-60
2021/07/22 02:07:16;;;;;;;11.30;9.50;;;;;;;21.66;100.00;99247.59;1702497;83;21552;-59
2021/07/22 02:09:44;;;;;;;10.97;9.83;;;;;;;21.82;100.00;99254.34;1725684;82;21254;-59
2021/07/22 02:12:12;;;;;;;11.80;9.43;;;;;;;21.80;100.00;99256.47;1729782;82;21036;-59
2021/07/22 02:14:40;;;;;;;10.77;9.67;;;;;;;21.90;100.00;99256.92;1752719;80;21026;-58
2021/07/22 02:17:07;;;;;;;11.13;10.03;;;;;;;21.95;100.00;99252.88;1745839;80;21154;-63
2021/07/22 02:19:34;;;;;;;11.10;9.90;;;;;;;21.92;100.00;99254.76;1752253;81;21330;-60
2021/07/22 02:22:03;;;;;;;11.70;9.67;;;;;;;21.74;100.00;99256.27;1752057;81;20955;-60
2021/07/22 02:24:31;;;;;;;12.17;10.00;;;;;;;21.50;100.00;99258.89;1746522;82;21042;-60
2021/07/22 02:27:01;;;;;;;11.73;9.63;;;;;;;21.53;100.00;99262.31;1777353;80;20968;-61
2021/07/22 02:29:28;;;;;;;12.97;9.63;;;;;;;21.48;100.00;99266.34;1781486;80;22105;-60
2021/07/22 02:31:54;;;;;;;10.83;9.73;;;;;;;21.67;100.00;99261.64;1781175;79;21020;-61
2021/07/22 02:34:21;;;;;;;13.27;8.87;;;;;;;21.64;100.00;99264.88;1759279;80;21047;-61
2021/07/22 02:36:47;;;;;;;11.47;9.33;;;;;;;21.65;100.00;99271.76;1780803;80;20915;-66
2021/07/22 02:39:35;;;;;;;13.50;10.33;;;;;;;21.35;100.00;99278.91;1781261;79;21074;-62
2021/07/22 02:42:01;;;;;;;12.63;10.47;;;;;;;21.14;100.00;99289.64;1781257;79;21072;-61
2021/07/22 02:44:29;;;;;;;11.70;9.40;;;;;;;21.43;100.00;99295.53;1780422;80;20995;-61
2021/07/22 02:46:58;;;;;;;10.80;9.27;;;;;;;21.17;100.00;99307.37;1778089;80;21407;-61
2021/07/22 02:49:24;;;;;;;10.43;9.03;;;;;;;21.24;100.00;99311.83;1745851;82;21540;-60
2021/07/22 02:51:52;;;;;;;14.63;10.83;;;;;;;21.31;100.00;99313.09;1746326;82;21012;-60
2021/07/22 02:54:20;;;;;;;12.87;10.50;;;;;;;21.46;100.00;99308.78;1780843;80;21086;-60
2021/07/22 02:56:46;;;;;;;12.83;11.47;;;;;;;21.23;100.00;99313.69;1780301;80;20929;-60
2021/07/22 02:59:15;;;;;;;15.33;11.33;;;;;;;21.26;100.00;99313.14;1779804;80;21355;-62
2021/07/22 03:01:42;;;;;;;13.87;12.27;;;;;;;21.25;100.00;99314.73;1767690;78;21346;-60
2021/07/22 03:04:11;;;;;;;14.07;12.33;;;;;;;21.13;100.00;99313.75;1763265;81;21023;-61
2021/07/22 03:06:40;;;;;;;14.50;12.43;;;;;;;21.10;100.00;99320.41;1730347;82;21851;-65
2021/07/22 03:09:07;;;;;;;15.87;12.30;;;;;;;21.40;100.00;99320.48;1763747;81;21323;-61
2021/07/22 03:11:35;;;;;;;16.67;12.57;;;;;;;21.23;100.00;99326.95;1762514;81;21038;-61
2021/07/22 03:14:02;;;;;;;13.57;11.67;;;;;;;21.39;100.00;99327.66;1731985;82;21043;-62
2021/07/22 03:16:29;;;;;;;13.77;11.30;;;;;;;21.02;100.00;99331.57;1763677;81;21389;-61
2021/07/22 03:19:14;;;;;;;12.50;11.20;;;;;;;21.25;100.00;99337.26;1731724;82;21359;-61
2021/07/22 03:21:54;;;;;;;14.77;12.73;;;;;;;21.25;100.00;99334.61;1762892;81;20931;-62
2021/07/22 03:24:25;;;;;;;14.37;12.83;;;;;;;21.18;100.00;99330.17;1675316;82;21006;-63
2021/07/22 03:26:52;;;;;;;14.03;12.50;;;;;;;21.16;100.00;99333.09;1763445;81;21836;-67
2021/07/22 03:29:19;;;;;;;13.93;12.07;;;;;;;21.22;100.00;99326.70;1701943;82;21072;-63
2021/07/22 03:31:46;;;;;;;13.90;12.03;;;;;;;21.44;100.00;99326.30;1765659;79;21146;-67
2021/07/22 03:34:14;;;;;;;15.40;12.47;;;;;;;21.45;100.00;99331.86;1792610;78;21453;-62
2021/07/22 03:36:44;;;;;;;14.77;12.77;;;;;;;21.51;100.00;99328.08;1761891;81;21418;-63
2021/07/22 03:39:13;;;;;;;15.33;12.60;;;;;;;21.57;100.00;99324.87;1786606;80;21454;-65
2021/07/22 03:41:48;;;;;;;15.43;12.37;;;;;;;21.61;100.00;99329.33;1787323;80;21562;-64
2021/07/22 03:44:19;;;;;;;14.30;12.07;;;;;;;21.66;100.00;99331.14;1784452;80;21142;-66
2021/07/22 03:46:47;;;;;;;15.00;12.90;;;;;;;21.63;100.00;99331.72;1787506;80;22271;-66
2021/07/22 03:49:14;;;;;;;14.37;12.37;;;;;;;21.52;100.00;99331.01;1787030;80;20917;-64
2021/07/22 03:51:41;;;;;;;14.97;12.57;;;;;;;21.57;100.00;99326.19;1787174;80;21126;-64
2021/07/22 03:54:08;;;;;;;17.20;12.60;;;;;;;21.43;100.00;99330.55;1786835;80;20907;-66
2021/07/22 03:56:35;;;;;;;15.63;14.03;;;;;;;21.39;100.00;99330.30;1787303;80;21287;-64
2021/07/22 03:59:04;;;;;;;15.43;13.27;;;;;;;21.40;100.00;99331.88;1786199;79;20960;-69
2021/07/22 04:01:38;;;;;;;14.90;13.27;;;;;;;21.72;100.00;99326.06;1780121;80;21639;-68
2021/07/22 04:04:06;;;;;;;17.20;14.00;;;;;;;21.79;100.00;99320.44;1766169;80;21360;-65
2021/07/22 04:06:37;;;;;;;19.23;14.17;;;;;;;21.87;100.00;99321.15;1771962;80;22318;-64
2021/07/22 04:09:06;;;;;;;15.70;14.00;;;;;;;21.96;100.00;99310.17;1771242;80;21593;-64
2021/07/22 04:11:52;;;;;;;15.13;12.73;;;;;;;21.77;100.00;99314.61;1766381;80;20935;-62
2021/07/22 04:14:26;;;;;;;14.17;12.63;;;;;;;21.92;100.00;99322.41;1749296;80;21010;-68
2021/07/22 04:16:55;;;;;;;14.90;13.40;;;;;;;22.09;100.00;99317.48;1764158;79;20946;-66
2021/07/22 04:19:26;;;;;;;;;;;;;;;22.22;100.00;99322.66;1713394;81;21322;-67
2021/07/22 04:21:57;;;;;;;14.65;12.65;;;;;;;22.50;100.00;99318.88;1758079;81;21885;-68
2021/07/22 04:24:28;;;;;;;14.77;12.93;;;;;;;22.47;100.00;99313.63;1783345;80;21007;-67
2021/07/22 04:26:58;;;;;;;16.43;13.90;;;;;;;22.44;100.00;99312.86;1783595;80;21801;-67
2021/07/22 04:29:41;;;;;;;18.10;13.97;;;;;;;22.01;100.00;99323.41;1765176;80;21018;-66
2021/07/22 04:32:08;;;;;;;16.40;13.80;;;;;;;22.04;100.00;99309.55;1783824;80;20879;-70
2021/07/22 04:34:39;;;;;;;15.88;12.58;;;;;;;22.22;100.00;99313.91;1759078;79;21156;-68
2021/07/22 04:37:08;;;;;;;17.60;13.37;;;;;;;22.32;100.00;99320.45;1786849;80;21030;-69
2021/07/22 04:39:40;;;;;;;18.20;13.30;;;;;;;22.41;100.00;99328.03;1788708;80;20954;-68
2021/07/22 04:42:09;;;;;;;15.80;12.93;;;;;;;22.44;100.00;99338.09;1787210;80;20995;-70
2021/07/22 04:44:49;;;;;;;17.07;13.20;;;;;;;22.13;100.00;99344.78;1787836;80;20962;-69
2021/07/22 04:47:30;;;;;;;14.78;12.33;;;;;;;22.48;100.00;99351.05;1785818;80;21232;-69
2021/07/22 04:50:01;;;;;;;14.60;12.55;;;;;;;22.57;100.00;99358.63;1782460;80;20927;-70
2021/07/22 04:52:29;;;;;;;14.37;12.80;;;;;;;22.06;100.00;99353.86;1785877;80;21630;-70
2021/07/22 04:55:00;;;;;;;15.83;13.70;;;;;;;;;;1787775;80;21059;-68
2021/07/22 04:57:29;;;;;;;15.07;12.87;;;;;;;21.82;100.00;99364.95;1759235;81;21452;-68
2021/07/22 04:59:57;;;;;;;15.23;12.40;;;;;;;22.01;100.00;99375.16;1788928;80;21170;-69
2021/07/22 05:02:25;;;;;;;13.87;11.37;;;;;;;22.04;100.00;99370.59;1769977;80;21607;-68
2021/07/22 05:04:52;;;;;;;14.50;11.70;;;;;;;22.18;100.00;99364.12;1784709;80;21069;-68
2021/07/22 05:07:19;;;;;;;12.70;11.33;;;;;;;22.04;100.00;99367.93;1785408;80;21037;-69
2021/07/22 05:09:48;;;;;;;14.50;11.83;;;;;;;22.06;100.00;99363.69;1783526;80;20876;-69
2021/07/22 05:12:22;;;;;;;15.87;11.97;;;;;;;22.09;100.00;99351.98;1783812;80;21165;-65
2021/07/22 05:15:00;;;;;;;16.83;12.90;;;;;;;22.08;100.00;99334.45;1744638;80;20998;-60
2021/07/22 05:17:38;;;;;;;14.63;12.63;;;;;;;21.71;100.00;99350.22;1739666;80;20887;-60
2021/07/22 05:20:19;;;;;;;18.20;12.70;;;;;;;21.49;100.00;99370.01;1725701;80;20931;-58
2021/07/22 05:22:48;;;;;;;16.20;12.50;;;;;;;21.28;100.00;99379.12;1758666;80;20975;-58
2021/07/22 05:25:16;;;;;;;14.60;12.40;;;;;;;21.31;100.00;99382.02;1752351;81;21114;-58
2021/07/22 05:27:47;;;;;;;16.02;12.47;;;;;;;21.29;100.00;99388.66;1762864;81;21520;-61
2021/07/22 05:30:21;;;;;;;13.83;12.17;;;;;;;21.47;100.00;99384.06;1722528;83;22055;-58
2021/07/22 05:33:08;;;;;;;15.23;13.10;;;;;;;21.21;100.00;99386.59;1763325;81;20906;-62
2021/07/22 05:35:45;;;;;;;12.73;11.23;;;;;;;21.17;100.00;99384.23;1722150;83;21054;-56
2021/07/22 05:38:16;;;;;;;14.95;12.35;;;;;;;20.88;100.00;99380.95;1723086;81;21157;-57
2021/07/22 05:40:42;;;;;;;13.57;12.07;;;;;;;20.79;100.00;99374.61;1724187;83;21018;-61
2021/07/22 05:43:09;;;;;;;13.83;12.03;;;;;;;20.77;100.00;99369.60;1763933;81;21405;-56
2021/07/22 05:45:37;;;;;;;15.10;11.93;;;;;;;20.93;100.00;99371.64;1755300;81;21617;-57
2021/07/22 05:48:05;;;;;;;13.33;11.37;;;;;;;21.13;100.00;99380.80;1764001;81;21031;-58
2021/07/22 05:50:31;;;;;;;12.83;11.40;;;;;;;21.19;100.00;99385.55;1724342;83;21171;-56
2021/07/22 05:52:59;;;;;;;13.03;11.60;;;;;;;20.94;100.00;99391.77;1762713;79;22459;-62
2021/07/22 05:55:27;;;;;;;14.43;12.03;;;;;;;20.89;100.00;99385.17;1762997;80;21488;-62
2021/07/22 05:57:54;;;;;;;14.27;12.90;;;;;;;20.73;100.00;99380.48;1755546;80;21433;-57
2021/07/22 06:00:20;;;;;;;16.27;13.53;;;;;;;20.56;100.00;99376.81;1748332;81;20912;-57
2021/07/22 06:02:47;;;;;;;14.63;13.13;;;;;;;20.71;100.00;99380.48;1772147;79;21083;-58
2021/07/22 06:05:14;;;;;;;15.97;13.97;;;;;;;20.85;100.00;99389.43;1756572;80;21476;-62
2021/07/22 06:07:41;;;;;;;15.90;13.33;;;;;;;20.89;100.00;99395.23;1788625;78;22251;-62
2021/07/22 06:10:08;;;;;;;13.37;12.07;;;;;;;21.10;100.00;99401.23;1759054;80;20970;-57
2021/07/22 06:12:34;;;;;;;13.37;12.03;;;;;;;21.23;100.00;99406.46;1725280;81;20969;-57
2021/07/22 06:15:01;;;;;;;18.90;12.60;;;;;;;21.31;100.00;99405.87;1777687;79;22287;-59
2021/07/22 06:17:27;;;;;;;14.43;12.87;;;;;;;21.69;100.00;99402.20;1765755;79;20922;-58
2021/07/22 06:19:54;;;;;;;15.13;13.23;;;;;;;21.68;100.00;99395.86;1758507;80;21103;-59
2021/07/22 06:22:21;;;;;;;15.83;13.23;;;;;;;21.43;100.00;99392.31;1728977;81;22037;-59
2021/07/22 06:24:48;;;;;;;14.83;13.37;;;;;;;21.36;100.00;99395.80;1759706;80;21096;-56
2021/07/22 06:27:15;;;;;;;18.67;14.00;;;;;;;21.26;100.00;99390.55;1753976;81;21148;-65
2021/07/22 06:29:43;;;;;;;15.53;13.73;;;;;;;21.25;100.00;99391.09;1742511;81;20968;-64
2021/07/22 06:32:09;;;;;;;13.90;12.43;;;;;;;21.46;100.00;99394.41;1745310;81;21063;-58
2021/07/22 06:34:36;;;;;;;14.70;13.20;;;;;;;21.52;100.00;99390.67;1753320;81;20899;-56
2021/07/22 06:37:03;;;;;;;15.10;12.83;;;;;;;21.47;100.00;99389.36;1747976;81;21041;-59
2021/07/22 06:39:35;;;;;;;15.17;13.57;;;;;;;21.49;100.00;99382.48;1753907;81;23025;-57
2021/07/22 06:42:03;;;;;;;14.03;12.53;;;;;;;21.40;100.00;99384.90;1749403;81;21080;-57
2021/07/22 06:44:31;;;;;;;14.77;13.33;;;;;;;21.34;100.00;99392.11;1767872;79;21029;-57
2021/07/22 06:47:00;;;;;;;16.27;13.93;;;;;;;21.42;100.00;99392.59;1778178;79;20904;-57
2021/07/22 06:49:27;;;;;;;16.87;15.13;;;;;;;21.70;100.00;99387.08;1778653;79;21000;-59
2021/07/22 06:51:54;;;;;;;18.40;16.30;;;;;;;21.51;100.00;99383.77;1758823;80;21450;-60
2021/07/22 06:54:21;;;;;;;17.37;15.57;;;;;;;21.49;100.00;99379.28;1789691;78;21041;-56
2021/07/22 06:56:48;;;;;;;19.07;17.07;;;;;;;21.64;100.00;99378.38;1789600;78;20959;-58
2021/07/22 06:59:15;;;;;;;19.77;17.67;;;;;;;21.62;100.00;99386.59;1779750;78;20983;-58
2021/07/22 07:01:43;;;;;;;19.67;17.13;;;;;;;21.77;100.00;99381.71;1788782;78;20975;-62
2021/07/22 07:04:10;;;;;;;18.47;15.83;;;;;;;21.74;100.00;99388.89;1780005;78;21070;-58
2021/07/22 07:06:36;;;;;;;19.07;16.13;;;;;;;21.78;100.00;99381.98;1745239;80;20864;-57
2021/07/22 07:09:06;;;;;;;16.73;14.93;;;;;;;21.68;100.00;99389.23;1742563;82;21436;-58
2021/07/22 07:11:36;;;;;;;17.33;14.73;;;;;;;21.91;100.00;99386.39;1748292;82;20931;-58
2021/07/22 07:14:03;;;;;;;17.77;15.93;;;;;;;21.97;100.00;99379.44;1742934;82;21103;-59
2021/07/22 07:16:30;;;;;;;16.80;15.00;;;;;;;21.93;100.00;99383.69;1749061;80;21112;-57
2021/07/22 07:18:56;;;;;;;17.47;15.20;;;;;;;22.15;100.00;99387.23;1739370;81;21488;-58
2021/07/22 07:21:23;;;;;;;19.10;15.53;;;;;;;22.20;100.00;99383.73;1758115;81;21283;-58
2021/07/22 07:23:50;;;;;;;18.03;15.20;;;;;;;21.98;100.00;99387.64;1758373;81;20967;-58
2021/07/22 07:26:17;;;;;;;16.00;14.30;;;;;;;22.46;100.00;99385.59;1746326;80;21236;-59
2021/07/22 07:28:43;;;;;;;17.13;15.37;;;;;;;22.32;100.00;99388.15;1738818;81;22218;-58
2021/07/22 07:31:11;;;;;;;16.83;15.13;;;;;;;22.52;100.00;99384.47;1738422;81;20970;-59
2021/07/22 07:33:38;;;;;;;15.97;14.03;;;;;;;22.82;100.00;99383.32;1758491;80;20853;-60
2021/07/22 07:36:05;;;;;;;16.07;14.20;;;;;;;22.92;100.00;99384.56;1757697;80;20926;-61
2021/07/22 07:38:32;;;;;;;15.97;13.17;;;;;;;23.05;100.00;99381.18;1758743;80;21449;-59
2021/07/22 07:40:58;;;;;;;14.90;13.00;;;;;;;23.13;100.00;99382.95;1758993;81;21181;-59
2021/07/22 07:43:25;;;;;;;17.43;14.87;;;;;;;23.13;100.00;99383.73;1757949;81;20989;-59
2021/07/22 07:45:53;;;;;;;14.43;13.03;;;;;;;23.18;100.00;99369.56;1760123;81;21033;-60
2021/07/22 07:48:19;;;;;;;14.00;12.33;;;;;;;23.20;100.00;99373.53;1746713;82;20985;-59
2021/07/22 07:50:46;;;;;;;12.63;11.33;;;;;;;23.18;100.00;99370.90;1747160;82;22043;-60
2021/07/22 07:53:16;;;;;;;13.43;12.03;;;;;;;23.26;100.00;99363.59;1748187;82;21165;-60
2021/07/22 07:55:44;;;;;;;12.93;11.28;;;;;;;23.23;100.00;99374.83;1747979;82;21014;-67
2021/07/22 07:58:11;;;;;;;13.83;12.43;;;;;;;23.34;100.00;99374.16;1747821;80;20981;-62
2021/07/22 08:00:38;;;;;;;14.47;12.60;;;;;;;23.27;100.00;99378.49;1749730;80;20900;-60
2021/07/22 08:03:06;;;;;;;13.97;12.57;;;;;;;23.33;100.00;99383.19;1721130;81;21481;-60
2021/07/22 08:05:33;;;;;;;14.20;12.27;;;;;;;23.52;100.00;99396.74;1714171;82;21177;-60
2021/07/22 08:07:59;;;;;;;13.87;12.43;;;;;;;23.81;100.00;99393.66;1730825;81;21114;-62
2021/07/22 08:10:26;;;;;;;13.37;12.00;;;;;;;23.86;100.00;99390.90;1736204;81;21040;-62
2021/07/22 08:12:53;;;;;;;13.87;12.37;;;;;;;24.05;100.00;99382.31;1713931;82;21559;-61
2021/07/22 08:15:21;;;;;;;12.23;11.03;;;;;;;24.22;100.00;99384.42;1777134;79;20947;-60
2021/07/22 08:17:48;;;;;;;15.87;11.43;;;;;;;23.96;100.00;99392.06;1731888;82;21527;-60
2021/07/22 08:20:14;;;;;;;12.70;11.40;;;;;;;23.86;100.00;99395.67;1732724;81;21873;-58
2021/07/22 08:22:41;;;;;;;12.83;11.10;;;;;;;23.99;100.00;99400.25;1732689;81;21461;-60
2021/07/22 08:25:10;;;;;;;10.90;9.70;;;;;;;23.67;100.00;99381.08;1732749;81;21072;-60
2021/07/22 08:27:37;;;;;;;10.27;9.10;;;;;;;23.65;100.00;99390.42;1731978;82;20919;-60
2021/07/22 08:30:05;;;;;;;12.00;9.83;;;;;;;23.82;100.00;99391.23;1732764;81;21460;-60
2021/07/22 08:32:32;;;;;;;12.30;9.53;;;;;;;23.96;100.00;99388.86;1733387;81;20995;-65
2021/07/22 08:34:58;;;;;;;10.00;8.00;;;;;;;24.01;100.00;99379.44;1732217;82;20946;-63
2021/07/22 08:37:25;;;;;;;10.90;7.67;;;;;;;24.36;100.00;99379.08;1732474;82;21512;-67
2021/07/22 08:39:55;;;;;;;10.53;7.83;;;;;;;24.66;100.00;99372.39;1732591;81;21027;-61
2021/07/22 08:42:20;;;;;;;8.17;7.33;;;;;;;24.66;100.00;99375.06;1732981;81;22111;-64
2021/07/22 08:44:47;;;;;;;9.07;6.53;;;;;;;25.12;100.00;99368.81;1732422;81;21544;-69
2021/07/22 08:47:14;;;;;;;9.23;6.47;;;;;;;24.75;100.00;99358.09;1676854;81;21571;-63
2021/07/22 08:49:40;;;;;;;7.40;6.57;;;;;;;25.02;100.00;99362.33;1731967;82;21125;-65
2021/07/22 08:52:09;;;;;;;7.00;6.30;;;;;;;24.87;100.00;99357.56;1732960;81;20958;-65
2021/07/22 08:54:37;;;;;;;10.80;7.27;;;;;;;24.99;100.00;99359.16;1732702;82;22112;-66
2021/07/22 08:57:09;;;;;;;7.83;5.93;;;;;;;25.20;100.00;99366.75;1731397;82;20994;-66
2021/07/22 08:59:35;;;;;;;7.85;6.62;;;;;;;25.29;100.00;99364.14;1722589;82;22234;-69
2021/07/22 09:02:03;;;;;;;8.57;6.13;;;;;;;24.98;100.00;99368.26;1732239;81;21018;-68
2021/07/22 09:04:30;;;;;;;12.33;5.93;;;;;;;25.52;100.00;99367.05;1744465;80;21082;-68
2021/07/22 09:06:57;;;;;;;5.85;5.12;;;;;;;25.81;100.00;99365.31;1755620;79;21103;-67
2021/07/22 09:09:23;;;;;;;8.77;5.00;;;;;;;25.38;100.00;99359.66;1754631;80;21388;-68
2021/07/22 09:12:03;;;;;;;5.83;5.23;;;;;;;25.53;100.00;99370.52;1783980;79;21490;-70
2021/07/22 09:14:31;;;;;;;5.73;5.13;;;;;;;25.32;100.00;99370.22;1747188;80;20982;-69
2021/07/22 09:16:59;;;;;;;6.37;5.23;;;;;;;24.80;100.00;99378.50;1780191;79;20917;-70
2021/07/22 09:19:40;;;;;;;5.87;4.63;;;;;;;24.54;100.00;99377.45;1785371;79;21157;-71
2021/07/22 09:22:09;;;;;;;5.95;4.85;;;;;;;24.48;100.00;99377.55;1778300;79;20993;-65
2021/07/22 09:24:53;;;;;;;6.10;4.70;;;;;;;24.33;100.00;99387.14;1783653;79;21544;-67
2021/07/22 09:27:34;;;;;;;7.93;4.57;;;;;;;24.36;100.00;99388.41;1783558;79;22467;-72
2021/07/22 09:30:01;;;;;;;;;;;;;;;23.99;100.00;99389.61;1759188;80;21092;-69
2021/07/22 09:32:34;;;;;;;6.30;4.10;;;;;;;24.19;100.00;99399.10;1786443;78;22748;-67
2021/07/22 09:35:10;;;;;;;7.23;4.80;;;;;;;24.22;100.00;99398.52;1755470;80;21491;-70
2021/07/22 09:37:40;;;;;;;6.57;4.50;;;;;;;24.31;100.00;99400.50;1749258;80;21057;-68
2021/07/22 09:40:11;;;;;;;6.50;4.47;;;;;;;24.33;100.00;99395.13;1755148;80;21107;-68
2021/07/22 09:42:44;;;;;;;;;;;;;;;24.58;100.00;99398.41;1766475;79;20975;-68
2021/07/22 09:45:18;;;;;;;6.07;4.47;;;;;;;24.62;100.00;99405.51;1724899;81;21162;-69
2021/07/22 09:47:48;;;;;;;5.77;4.37;;;;;;;24.73;100.00;99404.77;1753321;79;20982;-70
2021/07/22 09:50:20;;;;;;;4.90;4.23;;;;;;;24.96;100.00;99401.11;1755631;80;21438;-69
2021/07/22 09:52:48;;;;;;;5.43;4.20;;;;;;;25.06;100.00;99396.64;1754474;79;21004;-69
2021/07/22 09:55:32;;;;;;;5.07;4.00;;;;;;;25.52;100.00;99388.95;1755338;80;21757;-70
2021/07/22 09:58:02;;;;;;;8.43;3.37;;;;;;;25.81;100.00;99380.00;1686391;83;21167;-71
2021/07/22 10:00:30;;;;;;;5.10;3.70;;;;;;;26.33;100.00;99369.56;1755375;79;21045;-70
2021/07/22 10:03:00;;;;;;;5.47;3.90;;;;;;;26.67;100.00;99378.26;1763638;79;22250;-71
2021/07/22 10:05:33;;;;;;;4.90;4.03;;;;;;;26.71;100.00;99370.41;1761555;81;20930;-70
2021/07/22 10:07:59;;;;;;;6.40;4.08;;;;;;;26.58;100.00;99372.64;1723429;81;21367;-70
2021/07/22 10:10:28;;;;;;;7.65;4.25;;;;;;;26.61;100.00;99368.02;1762461;79;21168;-69
2021/07/22 10:13:00;;;;;;;5.97;3.47;;;;;;;26.55;100.00;99370.58;1719441;81;21493;-69
2021/07/22 10:15:32;;;;;;;6.47;4.28;;;;;;;26.84;100.00;99365.45;1747770;80;21615;-70
2021/07/22 10:17:59;;;;;;;7.10;3.65;;;;;;;27.24;100.00;99361.35;1751387;80;21004;-69
2021/07/22 10:20:32;;;;;;;4.58;2.92;;;;;;;27.58;100.00;99360.52;1724287;81;20951;-68
2021/07/22 10:22:59;;;;;;;5.03;3.42;;;;;;;27.82;100.00;99361.91;1747481;79;21128;-69
2021/07/22 10:25:26;;;;;;;5.50;3.45;;;;;;;27.47;100.00;99368.65;1785570;78;20926;-69
2021/07/22 10:27:53;;;;;;;5.05;3.80;;;;;;;27.40;100.00;99367.00;1749662;79;21602;-69
2021/07/22 10:30:21;;;;;;;5.53;3.50;;;;;;;26.97;100.00;99367.74;1749143;79;21104;-67
2021/07/22 10:33:02;;;;;;;5.35;3.55;;;;;;;26.99;100.00;99364.77;1748831;79;20954;-71
2021/07/22 10:35:32;;;;;;;6.90;3.30;;;;;;;27.09;100.00;99359.91;1750539;81;21185;-69
2021/07/22 10:38:27;;;;;;;5.17;3.13;;;;;;;27.14;100.00;99354.97;1749834;80;21037;-69
2021/07/22 10:41:00;;;;;;;4.50;3.62;;;;;;;27.72;100.00;99347.48;1764074;79;22374;-70
2021/07/22 10:43:43;;;;;;;4.15;3.12;;;;;;;27.67;100.00;99339.08;1750915;80;21084;-69
2021/07/22 10:46:18;;;;;;;6.17;3.70;;;;;;;27.55;100.00;99341.63;1741101;80;21091;-70
2021/07/22 10:48:45;;;;;;;4.83;3.25;;;;;;;28.09;100.00;99346.77;1756469;80;21112;-70
2021/07/22 10:51:15;;;;;;;5.65;3.72;;;;;;;28.29;100.00;99346.58;1695635;81;21086;-70
2021/07/22 10:53:53;;;;;;;4.65;3.20;;;;;;;28.40;100.00;99357.76;1753390;80;20990;-69
2021/07/22 10:56:45;;;;;;;4.22;3.10;;;;;;;28.61;100.00;99353.79;1744064;80;21469;-70
2021/07/22 10:59:13;;;;;;;4.42;3.20;;;;;;;28.50;100.00;99349.91;1740354;81;21125;-69
2021/07/22 11:01:50;;;;;;;3.98;3.50;;;;;;;28.80;100.00;99344.75;1746844;81;22353;-70
2021/07/22 11:04:39;;;;;;;5.20;3.55;;;;;;;29.02;100.00;99339.64;1748519;81;21260;-69
2021/07/22 11:07:07;;;;;;;4.62;3.37;;;;;;;29.34;100.00;99339.98;1798983;78;20991;-70
2021/07/22 11:09:54;;;;;;;5.15;3.60;;;;;;;29.34;100.00;99339.98;1755727;80;20910;-70
2021/07/22 11:12:42;;;;;;;7.40;3.02;;;;;;;29.10;100.00;99343.37;1785211;79;21895;-70
2021/07/22 11:15:15;;;;;;;7.28;3.52;;;;;;;29.20;100.00;99346.97;1748508;80;21582;-70
2021/07/22 11:17:44;;;;;;;3.83;2.62;;;;;;;29.62;100.00;99337.51;1762069;79;21366;-71
2021/07/22 11:20:31;;;;;;;5.45;3.08;;;;;;;29.95;100.00;99332.64;1721909;81;21044;-73
2021/07/22 11:22:58;;;;;;;3.77;3.00;;;;;;;30.16;97.16;99339.28;1762875;79;21422;-73
2021/07/22 11:25:25;;;;;;;6.20;3.30;;;;;;;30.15;94.81;99340.38;1750098;79;22296;-73
2021/07/22 11:27:51;;;;;;;5.95;3.72;;;;;;;29.87;94.04;99338.91;1751352;79;21530;-74